Time;durP1;ratioP1;P1;durP2;ratioP2;P2;SDS_P1;SDS_P2;PMS_P1;PMS_P2;Temp;Humidity;BMP_temperature;BMP_pressure;BME280_temperature;BME280_humidity;BME280_pressure;Samples;Min_cycle;Max_cycle;Signal;HPM_P1;HPM_P2
2023/02/08 00:00:47;;;;;;;1.70;1.08;;;20.40;48.50;;;;;;5022969;28;20033;-64
2023/02/08 00:03:13;;;;;;;2.47;1.30;;;20.30;48.40;;;;;;5021056;28;20040;-64
2023/02/08 00:05:39;;;;;;;1.65;1.13;;;20.40;48.40;;;;;;5020896;28;20025;-64
2023/02/08 00:08:05;;;;;;;1.92;1.20;;;20.30;48.40;;;;;;5024079;28;20050;-64
2023/02/08 00:10:31;;;;;;;2.80;1.30;;;20.30;48.30;;;;;;5021359;28;20080;-65
2023/02/08 00:12:56;;;;;;;1.65;1.20;;;20.30;48.40;;;;;;5018630;28;20478;-64
2023/02/08 00:15:22;;;;;;;1.50;1.10;;;20.30;48.30;;;;;;5020666;28;20030;-65
2023/02/08 00:17:47;;;;;;;2.00;1.20;;;20.30;48.30;;;;;;5021104;28;20054;-65
2023/02/08 00:20:14;;;;;;;2.13;1.35;;;20.30;48.30;;;;;;5019346;28;20093;-65
2023/02/08 00:22:40;;;;;;;1.83;1.30;;;20.30;48.30;;;;;;5022449;28;20156;-65
2023/02/08 00:25:06;;;;;;;1.70;1.17;;;20.30;48.30;;;;;;5019798;28;20101;-65
2023/02/08 00:27:32;;;;;;;2.10;1.35;;;20.20;48.30;;;;;;5021546;28;20038;-64
2023/02/08 00:29:58;;;;;;;2.13;1.20;;;20.20;48.30;;;;;;5017081;28;20026;-66
2023/02/08 00:32:23;;;;;;;1.95;1.40;;;20.20;48.30;;;;;;5016669;28;20477;-64
2023/02/08 00:34:49;;;;;;;2.20;1.40;;;20.20;48.20;;;;;;5020947;28;20026;-65
2023/02/08 00:37:15;;;;;;;2.15;1.38;;;20.20;48.30;;;;;;5020302;28;20026;-64
2023/02/08 00:39:41;;;;;;;2.38;1.63;;;20.20;48.30;;;;;;5019686;28;20461;-65
2023/02/08 00:42:07;;;;;;;2.47;1.30;;;20.20;48.30;;;;;;5023485;28;20036;-65
2023/02/08 00:44:32;;;;;;;2.25;1.30;;;20.20;48.20;;;;;;5016404;28;20030;-65
2023/02/08 00:46:58;;;;;;;2.00;1.30;;;20.20;48.20;;;;;;5021111;28;20034;-65
2023/02/08 00:49:24;;;;;;;1.65;1.20;;;20.20;48.30;;;;;;5019930;28;20342;-64
2023/02/08 00:51:49;;;;;;;2.40;1.38;;;20.10;48.20;;;;;;5020520;28;20112;-65
2023/02/08 00:54:19;;;;;;;2.17;1.30;;;20.10;48.20;;;;;;5019457;28;20041;-65
2023/02/08 00:56:45;;;;;;;2.38;1.30;;;20.10;48.10;;;;;;5018501;28;20033;-64
2023/02/08 00:59:11;;;;;;;2.35;1.33;;;20.10;48.20;;;;;;5019136;28;20377;-65
2023/02/08 01:01:37;;;;;;;2.30;1.33;;;20.10;48.10;;;;;;5019214;28;20044;-63
2023/02/08 01:04:03;;;;;;;1.80;1.30;;;20.10;48.10;;;;;;5017516;28;20041;-63
2023/02/08 01:06:29;;;;;;;1.92;1.10;;;20.10;48.20;;;;;;5019312;28;20505;-64
2023/02/08 01:08:55;;;;;;;1.80;1.23;;;20.10;48.20;;;;;;5035099;28;20025;-64
2023/02/08 01:11:26;;;;;;;2.28;1.42;;;20.10;48.20;;;;;;5018100;28;20034;-64
2023/02/08 01:13:54;;;;;;;1.85;1.25;;;20.00;48.10;;;;;;5019873;28;20152;-65
2023/02/08 01:16:30;;;;;;;2.10;1.15;;;20.00;48.10;;;;;;5017689;28;20026;-65
2023/02/08 01:18:57;;;;;;;2.58;1.35;;;20.00;48.10;;;;;;5020118;28;20029;-64
2023/02/08 01:21:35;;;;;;;1.90;1.33;;;20.00;48.10;;;;;;5019349;28;20040;-63
2023/02/08 01:24:01;;;;;;;1.95;1.33;;;20.00;48.10;;;;;;5020231;28;20545;-65
2023/02/08 01:26:27;;;;;;;2.08;1.38;;;20.00;48.10;;;;;;5019198;28;20022;-65
2023/02/08 01:28:54;;;;;;;1.90;1.15;;;20.00;48.10;;;;;;5018126;28;20065;-65
2023/02/08 01:31:26;;;;;;;2.33;1.50;;;20.00;48.10;;;;;;5018832;28;20025;-66
2023/02/08 01:33:52;;;;;;;1.58;1.10;;;19.90;48.00;;;;;;5018639;28;20026;-65
2023/02/08 01:36:18;;;;;;;1.80;1.23;;;19.90;48.00;;;;;;5020956;28;20044;-65
2023/02/08 01:38:44;;;;;;;1.70;1.20;;;19.90;48.10;;;;;;5021445;28;20025;-65
2023/02/08 01:41:17;;;;;;;1.80;1.30;;;19.90;48.00;;;;;;5019674;28;20029;-65
2023/02/08 01:44:04;;;;;;;1.85;1.30;;;19.90;48.00;;;;;;5021004;28;20041;-65
2023/02/08 01:46:31;;;;;;;2.30;1.50;;;19.90;48.00;;;;;;5016386;28;20033;-66
2023/02/08 01:49:06;;;;;;;2.50;1.30;;;19.90;48.00;;;;;;5017622;28;20453;-65
2023/02/08 01:51:36;;;;;;;1.98;1.23;;;19.90;48.10;;;;;;5018835;28;20365;-64
2023/02/08 01:54:02;;;;;;;;;;;19.90;48.00;;;;;;5019097;28;20033;-65
2023/02/08 01:56:32;;;;;;;1.90;1.30;;;19.90;48.00;;;;;;5018385;28;19916;-64
2023/02/08 01:59:00;;;;;;;2.33;1.25;;;19.90;48.50;;;;;;5018677;28;20351;-65
2023/02/08 02:01:29;;;;;;;2.03;1.30;;;19.90;48.00;;;;;;5016639;28;20113;-64
2023/02/08 02:03:56;;;;;;;2.20;1.35;;;19.80;48.00;;;;;;5020014;28;20377;-65
2023/02/08 02:06:32;;;;;;;1.38;1.08;;;19.80;47.90;;;;;;5019151;28;20365;-65
2023/02/08 02:09:04;;;;;;;2.13;1.10;;;19.80;48.00;;;;;;5021053;28;20090;-65
2023/02/08 02:11:30;;;;;;;1.70;1.23;;;19.80;47.90;;;;;;5019634;28;20125;-65
2023/02/08 02:13:57;;;;;;;1.75;1.20;;;19.90;48.00;;;;;;5019908;28;20044;-64
2023/02/08 02:16:22;;;;;;;1.65;1.20;;;19.80;48.00;;;;;;5018292;28;20065;-64
2023/02/08 02:18:48;;;;;;;1.80;1.20;;;19.80;48.00;;;;;;5016006;28;20500;-65
2023/02/08 02:21:32;;;;;;;1.92;1.20;;;19.80;48.00;;;;;;5022970;28;20025;-65
2023/02/08 02:24:05;;;;;;;2.03;1.30;;;19.80;48.00;;;;;;5017372;28;20034;-64
2023/02/08 02:26:42;;;;;;;1.83;1.10;;;19.80;48.10;;;;;;5020562;28;20030;-65
2023/02/08 02:29:27;;;;;;;1.92;1.20;;;19.80;48.10;;;;;;5016139;28;20029;-65
2023/02/08 02:32:11;;;;;;;1.60;1.20;;;19.80;48.10;;;;;;5016332;28;20065;-65
2023/02/08 02:34:42;;;;;;;1.95;1.20;;;19.80;48.10;;;;;;5015784;28;20485;-64
2023/02/08 02:37:16;;;;;;;1.70;1.17;;;19.80;48.10;;;;;;5019855;28;20025;-64
2023/02/08 02:40:08;;;;;;;2.10;1.25;;;19.80;48.10;;;;;;5017187;28;20022;-64
2023/02/08 02:46:06;;;;;;;2.28;1.33;;;19.70;48.00;;;;;;5015094;28;20040;-64
2023/02/08 02:48:48;;;;;;;1.92;1.20;;;19.70;48.10;;;;;;5019605;28;20259;-65
2023/02/08 02:51:45;;;;;;;1.77;1.25;;;19.70;48.10;;;;;;5017572;28;20026;-65
2023/02/08 02:54:36;;;;;;;2.10;1.20;;;19.70;48.10;;;;;;5014985;28;20126;-65
2023/02/08 02:57:05;;;;;;;1.58;1.10;;;19.70;48.10;;;;;;5019417;28;20038;-65
2023/02/08 02:59:35;;;;;;;1.90;1.20;;;19.70;48.10;;;;;;5017892;28;20069;-64
2023/02/08 03:02:02;;;;;;;1.80;1.20;;;19.70;48.10;;;;;;5019671;28;20033;-65
2023/02/08 03:04:33;;;;;;;2.15;1.30;;;19.70;48.20;;;;;;5025893;28;20045;-64
2023/02/08 03:07:11;;;;;;;2.00;1.20;;;19.60;48.10;;;;;;5021389;28;20394;-66
2023/02/08 03:10:00;;;;;;;1.92;1.20;;;19.70;48.20;;;;;;5023110;28;20503;-64
2023/02/08 03:12:26;;;;;;;2.00;1.30;;;19.70;48.20;;;;;;5022691;28;20065;-65
2023/02/08 03:15:16;;;;;;;1.90;1.30;;;19.70;48.20;;;;;;5024858;28;20472;-65
2023/02/08 03:18:01;;;;;;;1.80;1.30;;;19.70;48.20;;;;;;5022016;28;20040;-64
2023/02/08 03:20:56;;;;;;;1.77;1.20;;;19.60;48.20;;;;;;5022582;28;20069;-65
2023/02/08 03:23:28;;;;;;;2.22;1.30;;;19.60;48.10;;;;;;5022174;28;20025;-65
2023/02/08 03:26:12;;;;;;;2.00;1.40;;;19.60;48.20;;;;;;5019250;28;20083;-65
2023/02/08 03:28:55;;;;;;;2.15;1.40;;;19.60;48.20;;;;;;5021736;28;20500;-64
2023/02/08 03:31:45;;;;;;;1.50;1.10;;;19.60;48.20;;;;;;5021156;28;20068;-65
2023/02/08 03:34:32;;;;;;;2.40;1.30;;;19.60;48.20;;;;;;5022181;28;20032;-65
2023/02/08 03:37:07;;;;;;;2.03;1.30;;;19.60;48.20;;;;;;5021720;28;20142;-64
2023/02/08 03:39:36;;;;;;;2.03;1.25;;;19.60;48.20;;;;;;5024540;28;20366;-64
2023/02/08 03:42:08;;;;;;;2.07;1.33;;;19.60;48.30;;;;;;5021860;28;20573;-64
2023/02/08 03:44:41;;;;;;;2.13;1.40;;;19.50;48.20;;;;;;5020270;28;20523;-66
2023/02/08 03:47:25;;;;;;;2.08;1.33;;;19.60;48.30;;;;;;5023766;28;20061;-65
2023/02/08 03:49:53;;;;;;;2.15;1.13;;;19.60;48.80;;;;;;5020400;28;20096;-64
2023/02/08 03:52:21;;;;;;;1.55;1.10;;;19.50;48.30;;;;;;5037854;28;20473;-65
2023/02/08 03:54:59;;;;;;;1.70;1.27;;;19.60;48.30;;;;;;5020800;28;20033;-64
2023/02/08 03:57:46;;;;;;;2.00;1.30;;;19.50;48.30;;;;;;5020236;28;20064;-64
2023/02/08 04:00:15;;;;;;;2.17;1.30;;;19.50;48.30;;;;;;5020809;28;20032;-64
2023/02/08 04:03:07;;;;;;;2.35;1.40;;;19.50;48.30;;;;;;5022523;28;20034;-64
2023/02/08 04:05:33;;;;;;;1.80;1.20;;;19.50;48.30;;;;;;5020292;28;20033;-64
2023/02/08 04:07:59;;;;;;;1.88;1.33;;;19.50;48.30;;;;;;5020322;28;20025;-64
2023/02/08 04:10:24;;;;;;;1.90;1.27;;;19.50;48.30;;;;;;5020266;28;20086;-64
2023/02/08 04:12:50;;;;;;;2.45;1.65;;;19.50;48.30;;;;;;5019145;28;20037;-64
2023/02/08 04:15:16;;;;;;;2.78;1.50;;;19.50;48.30;;;;;;5021105;28;20029;-64
2023/02/08 04:17:42;;;;;;;2.33;1.40;;;19.50;48.30;;;;;;5021825;28;20040;-64
2023/02/08 04:20:08;;;;;;;2.22;1.52;;;19.50;48.40;;;;;;5021407;28;20029;-64
2023/02/08 04:22:34;;;;;;;2.10;1.38;;;19.50;48.40;;;;;;5022637;28;20025;-64
2023/02/08 04:25:00;;;;;;;2.33;1.48;;;19.50;48.40;;;;;;5021646;28;20029;-64
2023/02/08 04:27:25;;;;;;;2.20;1.60;;;19.50;48.40;;;;;;5021199;28;20030;-63
2023/02/08 04:29:51;;;;;;;2.60;1.60;;;19.40;48.30;;;;;;5020328;28;20380;-64
2023/02/08 04:32:16;;;;;;;2.13;1.40;;;19.50;48.40;;;;;;5018818;28;20103;-64
2023/02/08 04:34:42;;;;;;;2.22;1.27;;;19.40;48.40;;;;;;5022576;28;20033;-64
2023/02/08 04:37:09;;;;;;;1.63;1.23;;;19.40;48.30;;;;;;5016054;28;20108;-64
2023/02/08 04:39:35;;;;;;;2.20;1.40;;;19.40;48.30;;;;;;5021202;28;20026;-66
2023/02/08 04:42:01;;;;;;;2.55;1.55;;;19.40;48.30;;;;;;5019764;28;20022;-65
2023/02/08 04:44:27;;;;;;;2.65;1.50;;;19.40;48.40;;;;;;5019763;28;20025;-64
2023/02/08 04:46:52;;;;;;;1.95;1.50;;;19.40;48.50;;;;;;5019713;28;20038;-64
2023/02/08 04:49:18;;;;;;;2.65;1.55;;;19.40;48.50;;;;;;5020970;28;20034;-65
2023/02/08 04:51:44;;;;;;;2.13;1.42;;;19.40;48.50;;;;;;5019982;28;20044;-65
2023/02/08 04:54:09;;;;;;;2.00;1.45;;;19.40;48.60;;;;;;5017369;28;20063;-65
2023/02/08 04:56:35;;;;;;;2.13;1.30;;;19.40;48.60;;;;;;5021043;28;20076;-66
2023/02/08 04:59:01;;;;;;;1.70;1.30;;;19.40;48.60;;;;;;5020033;28;20113;-65
2023/02/08 05:01:27;;;;;;;1.88;1.33;;;19.40;48.70;;;;;;5018372;28;20032;-65
2023/02/08 05:03:52;;;;;;;2.10;1.38;;;19.40;48.60;;;;;;5019810;28;20758;-64
2023/02/08 05:06:18;;;;;;;2.35;1.40;;;19.40;48.70;;;;;;5018963;28;20029;-65
2023/02/08 05:08:44;;;;;;;2.00;1.20;;;19.40;48.70;;;;;;5021658;28;20040;-64
2023/02/08 05:11:09;;;;;;;2.47;1.60;;;19.40;48.70;;;;;;5019921;28;20504;-65
2023/02/08 05:13:35;;;;;;;2.17;1.40;;;19.40;48.70;;;;;;5021022;28;20481;-65
2023/02/08 05:16:01;;;;;;;2.17;1.50;;;19.40;48.70;;;;;;5020223;28;20021;-62
2023/02/08 05:18:26;;;;;;;2.20;1.50;;;19.40;48.70;;;;;;5019352;28;20029;-64
2023/02/08 05:20:57;;;;;;;2.85;1.42;;;19.40;48.70;;;;;;5019021;28;20060;-64
2023/02/08 05:23:23;;;;;;;2.80;1.55;;;19.30;48.60;;;;;;5018363;28;20033;-64
2023/02/08 05:25:49;;;;;;;2.17;1.30;;;19.30;48.60;;;;;;5015565;28;20022;-64
2023/02/08 05:28:15;;;;;;;2.40;1.50;;;19.30;48.70;;;;;;5019082;28;20155;-63
2023/02/08 05:30:41;;;;;;;2.00;1.50;;;19.30;48.60;;;;;;5020616;28;20358;-64
2023/02/08 05:33:06;;;;;;;2.35;1.70;;;19.30;48.60;;;;;;5019125;28;20032;-65
2023/02/08 05:35:32;;;;;;;2.70;1.60;;;19.30;48.70;;;;;;5018644;28;20029;-64
2023/02/08 05:37:58;;;;;;;2.30;1.60;;;19.30;48.70;;;;;;5021240;28;20029;-63
2023/02/08 05:40:23;;;;;;;2.60;1.60;;;19.30;48.70;;;;;;5017295;28;20040;-63
2023/02/08 05:42:49;;;;;;;2.75;1.67;;;19.30;48.70;;;;;;5019241;28;20452;-64
2023/02/08 05:45:14;;;;;;;2.30;1.55;;;19.30;48.80;;;;;;5017011;28;20433;-64
2023/02/08 05:47:41;;;;;;;2.30;1.52;;;19.30;48.90;;;;;;5018252;28;20042;-64
2023/02/08 05:50:07;;;;;;;2.33;1.50;;;19.30;48.90;;;;;;5017896;28;20025;-65
2023/02/08 05:52:32;;;;;;;2.28;1.50;;;19.30;48.90;;;;;;5018981;28;20098;-64
2023/02/08 05:54:58;;;;;;;2.08;1.40;;;19.30;49.00;;;;;;5018139;28;20026;-64
2023/02/08 05:57:23;;;;;;;2.33;1.50;;;19.30;49.10;;;;;;5017881;28;20040;-64
2023/02/08 05:59:49;;;;;;;2.38;1.42;;;19.30;49.10;;;;;;5019038;28;20278;-64
2023/02/08 06:02:14;;;;;;;2.35;1.50;;;19.30;49.10;;;;;;5020682;28;20030;-63
2023/02/08 06:04:40;;;;;;;2.83;1.60;;;19.30;49.10;;;;;;5017337;28;20072;-64
2023/02/08 06:07:06;;;;;;;2.30;1.50;;;19.30;49.10;;;;;;5018178;28;20833;-64
2023/02/08 06:09:31;;;;;;;2.10;1.40;;;19.30;49.10;;;;;;5018462;28;20493;-64
2023/02/08 06:11:57;;;;;;;2.10;1.45;;;19.30;49.10;;;;;;5020481;28;20029;-65
2023/02/08 06:14:22;;;;;;;3.10;1.70;;;19.30;49.10;;;;;;5018796;28;20034;-64
2023/02/08 06:16:48;;;;;;;3.78;1.67;;;19.30;49.00;;;;;;5019172;28;20123;-64
2023/02/08 06:19:14;;;;;;;2.75;1.70;;;19.40;49.10;;;;;;5017220;28;20334;-64
2023/02/08 06:21:41;;;;;;;2.28;1.50;;;19.30;49.50;;;;;;5019089;28;20385;-64
2023/02/08 06:24:07;;;;;;;2.50;1.60;;;19.40;49.00;;;;;;5020423;28;20026;-65
2023/02/08 06:26:33;;;;;;;2.33;1.60;;;19.40;49.00;;;;;;5016167;28;20029;-64
2023/02/08 06:28:59;;;;;;;3.15;1.60;;;19.40;49.10;;;;;;5019948;28;20576;-64
2023/02/08 06:31:25;;;;;;;2.88;1.55;;;19.40;49.10;;;;;;5018517;28;20112;-64
2023/02/08 06:33:50;;;;;;;2.63;1.60;;;19.40;49.10;;;;;;5018335;28;20029;-64
2023/02/08 06:36:16;;;;;;;2.47;1.67;;;19.30;49.10;;;;;;5019880;28;20381;-64
2023/02/08 06:38:41;;;;;;;3.20;1.70;;;19.40;49.20;;;;;;5020560;28;20033;-64
2023/02/08 06:41:07;;;;;;;3.05;1.75;;;19.30;49.10;;;;;;5020392;28;20179;-65
2023/02/08 06:43:33;;;;;;;2.72;1.63;;;19.30;49.10;;;;;;5022987;28;20060;-66
2023/02/08 06:45:58;;;;;;;2.90;1.80;;;19.30;49.10;;;;;;5021661;28;20053;-65
2023/02/08 06:48:24;;;;;;;3.58;1.92;;;19.40;50.30;;;;;;5023715;28;20570;-65
2023/02/08 06:50:54;;;;;;;3.38;2.00;;;19.50;50.20;;;;;;5020998;28;20060;-65
2023/02/08 06:53:20;;;;;;;3.70;2.30;;;19.50;49.80;;;;;;5022205;28;20021;-64
2023/02/08 06:55:49;;;;;;;4.07;2.38;;;19.60;49.50;;;;;;5022655;28;20138;-65
2023/02/08 06:58:15;;;;;;;4.25;2.20;;;19.70;49.40;;;;;;5021224;28;20378;-66
2023/02/08 07:00:41;;;;;;;4.45;2.03;;;19.80;49.70;;;;;;5018011;28;20034;-66
2023/02/08 07:03:07;;;;;;;3.92;2.45;;;19.90;48.90;;;;;;5022204;28;20040;-65
2023/02/08 07:05:34;;;;;;;3.55;2.20;;;20.00;48.80;;;;;;5026108;28;20633;-65
2023/02/08 07:08:00;;;;;;;4.28;2.55;;;20.10;48.60;;;;;;5021148;28;20108;-65
2023/02/08 07:10:25;;;;;;;4.07;2.17;;;20.20;48.60;;;;;;5019518;28;20104;-65
2023/02/08 07:12:51;;;;;;;4.10;2.20;;;20.20;48.70;;;;;;5021284;28;20067;-64
2023/02/08 07:15:17;;;;;;;5.40;2.60;;;20.30;48.40;;;;;;5020538;28;20131;-64
2023/02/08 07:17:42;;;;;;;4.93;2.58;;;20.40;48.20;;;;;;5021734;28;20037;-65
2023/02/08 07:20:10;;;;;;;4.07;2.25;;;20.50;48.10;;;;;;5020917;28;20033;-65
2023/02/08 07:22:36;;;;;;;3.00;2.03;;;20.50;48.20;;;;;;5020968;28;20026;-65
2023/02/08 07:25:02;;;;;;;4.05;2.50;;;20.60;48.00;;;;;;5021955;28;20022;-65
2023/02/08 07:27:28;;;;;;;3.15;2.10;;;20.60;47.80;;;;;;5021966;28;20068;-65
2023/02/08 07:29:54;;;;;;;4.65;2.30;;;20.60;47.90;;;;;;5022711;28;20029;-65
2023/02/08 07:32:19;;;;;;;4.40;2.35;;;20.70;47.80;;;;;;5020915;28;20026;-65
2023/02/08 07:34:45;;;;;;;3.72;2.20;;;20.70;47.80;;;;;;5021692;28;20469;-65
2023/02/08 07:37:11;;;;;;;4.03;2.10;;;20.70;47.80;;;;;;5023350;28;20025;-65
2023/02/08 07:39:37;;;;;;;4.30;2.20;;;20.70;47.70;;;;;;5021653;28;20067;-72
2023/02/08 07:42:05;;;;;;;4.10;2.40;;;20.70;47.70;;;;;;5035560;28;20025;-66
2023/02/08 07:44:31;;;;;;;4.03;2.30;;;20.70;47.60;;;;;;5018350;28;20473;-65
2023/02/08 07:46:56;;;;;;;4.28;2.33;;;20.70;47.60;;;;;;5025780;28;20048;-65
2023/02/08 07:49:22;;;;;;;4.80;2.60;;;20.80;47.60;;;;;;5018683;28;20036;-65
2023/02/08 07:51:48;;;;;;;4.35;2.50;;;20.80;47.50;;;;;;5022576;28;20029;-64
2023/02/08 07:54:13;;;;;;;5.30;2.70;;;20.80;47.40;;;;;;5019324;28;20029;-64
2023/02/08 07:56:39;;;;;;;3.97;2.30;;;20.80;47.50;;;;;;5018540;28;20021;-65
2023/02/08 07:59:05;;;;;;;4.38;2.78;;;20.80;47.50;;;;;;5022545;28;20528;-66
2023/02/08 08:01:31;;;;;;;4.15;2.40;;;20.90;47.40;;;;;;5024968;28;20469;-66
2023/02/08 08:03:56;;;;;;;4.05;2.53;;;20.90;47.40;;;;;;5031282;28;20038;-65
2023/02/08 08:06:22;;;;;;;4.13;2.35;;;20.90;47.30;;;;;;5031615;28;20029;-66
2023/02/08 08:08:49;;;;;;;4.68;2.88;;;20.90;47.30;;;;;;5034009;28;20384;-66
2023/02/08 08:11:16;;;;;;;4.18;2.80;;;20.90;47.30;;;;;;5020998;28;20034;-65
2023/02/08 08:13:42;;;;;;;5.18;2.85;;;21.00;47.20;;;;;;5031418;28;20030;-66
2023/02/08 08:16:08;;;;;;;5.60;3.00;;;21.00;47.10;;;;;;5023655;28;20033;-65
2023/02/08 08:18:34;;;;;;;4.57;2.65;;;21.20;47.10;;;;;;5022923;28;20018;-66
2023/02/08 08:21:00;;;;;;;4.43;2.47;;;21.20;46.80;;;;;;5021626;28;20030;-65
2023/02/08 08:23:27;;;;;;;4.63;2.90;;;21.30;46.80;;;;;;5030707;28;20037;-65
2023/02/08 08:25:53;;;;;;;6.43;3.22;;;21.40;46.70;;;;;;5032566;28;20025;-65
2023/02/08 08:28:19;;;;;;;4.00;2.40;;;21.40;46.50;;;;;;5033938;28;20025;-64
2023/02/08 08:30:45;;;;;;;3.95;2.70;;;21.50;46.40;;;;;;5026020;28;20128;-64
2023/02/08 08:33:12;;;;;;;5.20;3.10;;;21.60;46.30;;;;;;5034896;28;20077;-65
2023/02/08 08:35:38;;;;;;;4.15;2.67;;;21.60;46.10;;;;;;5030867;28;20495;-65
2023/02/08 08:38:04;;;;;;;4.43;2.80;;;21.70;46.10;;;;;;5031350;28;20026;-66
2023/02/08 08:40:30;;;;;;;4.55;2.60;;;21.70;45.80;;;;;;5029529;28;20022;-65
2023/02/08 08:42:56;;;;;;;4.70;2.90;;;21.80;45.80;;;;;;5028218;28;20030;-65
2023/02/08 08:45:22;;;;;;;4.72;2.95;;;21.80;45.70;;;;;;5030479;28;20117;-65
2023/02/08 08:47:47;;;;;;;4.68;2.83;;;21.80;45.70;;;;;;5032247;28;20106;-65
2023/02/08 08:50:13;;;;;;;4.35;2.75;;;21.80;45.70;;;;;;5026454;28;20033;-65
2023/02/08 08:52:39;;;;;;;4.60;2.80;;;21.80;45.60;;;;;;5028585;28;20061;-66
2023/02/08 08:55:06;;;;;;;4.43;2.63;;;21.80;46.10;;;;;;5020868;28;20045;-64
2023/02/08 08:57:31;;;;;;;4.70;3.15;;;21.80;45.60;;;;;;5027266;28;20519;-65
2023/02/08 08:59:57;;;;;;;4.82;3.10;;;21.80;45.50;;;;;;5028880;28;20026;-67
2023/02/08 09:02:23;;;;;;;4.00;2.80;;;21.90;45.60;;;;;;5028459;28;20382;-67
2023/02/08 09:04:48;;;;;;;4.65;2.70;;;21.90;45.60;;;;;;5030666;28;20055;-65
2023/02/08 09:07:14;;;;;;;4.68;2.88;;;21.80;45.50;;;;;;5032391;28;20030;-66
2023/02/08 09:09:40;;;;;;;4.18;2.78;;;21.80;45.50;;;;;;5025371;28;20172;-65
2023/02/08 09:12:06;;;;;;;4.95;2.50;;;21.90;45.60;;;;;;5020067;28;20470;-66
2023/02/08 09:14:32;;;;;;;4.25;2.55;;;21.80;45.70;;;;;;5022944;28;20025;-64
2023/02/08 09:16:58;;;;;;;4.32;2.83;;;21.80;45.70;;;;;;5029277;28;20033;-66
2023/02/08 09:19:23;;;;;;;3.70;2.60;;;21.90;45.60;;;;;;5022733;28;20411;-66
2023/02/08 09:21:49;;;;;;;4.63;2.90;;;22.00;45.50;;;;;;5041897;28;20066;-65
2023/02/08 09:24:16;;;;;;;4.20;2.90;;;22.10;45.40;;;;;;5031804;28;20172;-65
2023/02/08 09:26:42;;;;;;;4.00;2.60;;;22.10;45.30;;;;;;5030095;28;20029;-64
2023/02/08 09:29:07;;;;;;;4.20;2.70;;;22.20;45.70;;;;;;5029085;28;20041;-66
2023/02/08 09:31:36;;;;;;;3.58;2.50;;;22.20;45.10;;;;;;5019577;28;20034;-67
2023/02/08 09:34:04;;;;;;;3.72;2.38;;;22.30;44.90;;;;;;5022592;28;20108;-65
2023/02/08 09:36:35;;;;;;;5.63;2.60;;;22.40;44.80;;;;;;5034864;28;20037;-66
2023/02/08 09:39:06;;;;;;;3.60;2.47;;;22.40;44.70;;;;;;5031401;28;20017;-67
2023/02/08 09:41:46;;;;;;;4.10;2.75;;;22.50;44.60;;;;;;5029687;28;20036;-66
2023/02/08 09:44:20;;;;;;;4.22;2.55;;;22.60;44.50;;;;;;5028165;28;20581;-66
2023/02/08 09:47:20;;;;;;;4.45;2.90;;;22.70;44.30;;;;;;5030025;28;20030;-66
2023/02/08 09:50:00;;;;;;;3.92;2.60;;;22.70;44.20;;;;;;5028764;28;20041;-67
2023/02/08 09:52:35;;;;;;;4.95;2.50;;;22.80;44.00;;;;;;5027480;28;20030;-67
2023/02/08 09:55:16;;;;;;;4.10;2.70;;;22.80;43.90;;;;;;5017138;28;20106;-68
2023/02/08 09:57:43;;;;;;;3.90;2.50;;;22.90;44.10;;;;;;5030738;28;20060;-68
2023/02/08 10:00:15;;;;;;;4.53;2.90;;;23.00;44.00;;;;;;5031452;28;20022;-68
2023/02/08 10:02:43;;;;;;;3.72;2.50;;;23.00;43.80;;;;;;5029001;28;20030;-68
2023/02/08 10:05:18;;;;;;;4.30;2.60;;;23.10;43.70;;;;;;5022906;28;20026;-68
2023/02/08 10:07:43;;;;;;;4.85;3.00;;;23.10;43.50;;;;;;5034468;28;20048;-68
2023/02/08 10:10:27;;;;;;;5.00;3.22;;;23.20;43.50;;;;;;5026526;28;20044;-68
2023/02/08 10:13:19;;;;;;;5.03;3.10;;;23.20;43.40;;;;;;5028838;28;20075;-68
2023/02/08 10:16:10;;;;;;;4.95;2.92;;;23.30;43.30;;;;;;5027428;28;20078;-68
2023/02/08 10:18:43;;;;;;;4.03;2.60;;;23.30;43.00;;;;;;5021712;28;20053;-69
2023/02/08 10:21:33;;;;;;;4.60;2.83;;;23.40;42.90;;;;;;5022877;28;20538;-69
2023/02/08 10:24:07;;;;;;;;;;;23.50;42.70;;;;;;5022920;28;20036;-68
2023/02/08 10:26:58;;;;;;;4.32;3.05;;;23.50;42.90;;;;;;5021090;28;19916;-68
2023/02/08 10:29:29;;;;;;;4.30;2.97;;;23.60;42.80;;;;;;5016694;28;20116;-68
2023/02/08 10:32:19;;;;;;;4.00;2.75;;;23.60;42.50;;;;;;5017311;28;20083;-67
2023/02/08 10:34:51;;;;;;;5.15;3.08;;;23.70;42.50;;;;;;5023647;28;20116;-68
2023/02/08 10:37:27;;;;;;;3.58;2.50;;;23.70;42.00;;;;;;5018428;28;20014;-68
2023/02/08 10:39:55;;;;;;;4.32;2.80;;;23.60;41.90;;;;;;5016263;28;20034;-68
2023/02/08 10:42:23;;;;;;;3.90;2.78;;;23.60;42.10;;;;;;5018652;28;20103;-68
2023/02/08 10:45:25;;;;;;;4.60;3.03;;;23.60;41.90;;;;;;5018455;28;20052;-68
2023/02/08 10:48:01;;;;;;;4.82;3.13;;;23.60;41.90;;;;;;5014686;28;20076;-68
2023/02/08 10:50:35;;;;;;;3.75;3.00;;;23.60;41.80;;;;;;5014308;28;20068;-68
2023/02/08 10:53:01;;;;;;;4.32;3.03;;;23.60;41.90;;;;;;5016300;28;20503;-67
2023/02/08 10:55:30;;;;;;;4.20;3.00;;;23.50;41.90;;;;;;5018981;28;20069;-68
2023/02/08 10:57:59;;;;;;;4.97;3.40;;;23.50;41.90;;;;;;5019778;28;20026;-68
2023/02/08 11:00:29;;;;;;;4.70;3.30;;;23.50;41.80;;;;;;5015592;28;20294;-68
2023/02/08 11:02:59;;;;;;;4.65;3.08;;;23.50;41.90;;;;;;5017600;28;20032;-68
2023/02/08 11:05:25;;;;;;;3.58;2.78;;;23.40;41.90;;;;;;5018784;28;20127;-68
2023/02/08 11:08:11;;;;;;;4.50;2.90;;;23.40;41.90;;;;;;5017756;28;20129;-68
2023/02/08 11:10:38;;;;;;;4.03;2.80;;;23.30;41.90;;;;;;5019487;28;20120;-68
2023/02/08 11:13:09;;;;;;;4.20;3.00;;;23.30;41.90;;;;;;5014133;28;20116;-68
2023/02/08 11:15:39;;;;;;;5.22;3.33;;;23.30;41.90;;;;;;5018823;28;20365;-68
2023/02/08 11:18:14;;;;;;;4.53;3.08;;;23.30;41.90;;;;;;5019925;28;20029;-67
2023/02/08 11:20:40;;;;;;;5.22;3.13;;;23.20;42.00;;;;;;5017305;28;20038;-67
2023/02/08 11:23:29;;;;;;;4.30;3.00;;;23.20;42.00;;;;;;5019894;28;20053;-67
2023/02/08 11:26:15;;;;;;;4.30;3.00;;;23.20;42.00;;;;;;5029840;28;20032;-67
2023/02/08 11:28:41;;;;;;;4.38;2.80;;;23.10;42.00;;;;;;5022892;28;20041;-67
2023/02/08 11:31:18;;;;;;;5.15;2.90;;;23.10;42.00;;;;;;5021156;28;20030;-66
2023/02/08 11:34:02;;;;;;;4.15;3.03;;;23.00;42.10;;;;;;5023688;28;20638;-67
2023/02/08 11:36:30;;;;;;;4.15;2.75;;;23.00;42.20;;;;;;5021424;28;20026;-67
2023/02/08 11:38:59;;;;;;;4.07;2.63;;;23.00;42.20;;;;;;5022695;28;20022;-66
2023/02/08 11:41:25;;;;;;;4.25;2.78;;;23.00;42.40;;;;;;5022675;28;20101;-66
2023/02/08 11:43:58;;;;;;;4.57;2.90;;;23.00;42.50;;;;;;5024890;28;20033;-66
2023/02/08 11:46:27;;;;;;;4.03;3.00;;;22.90;42.30;;;;;;5020915;28;20018;-67
2023/02/08 11:48:54;;;;;;;4.80;3.25;;;22.90;42.30;;;;;;5021317;28;20018;-67
2023/02/08 11:51:38;;;;;;;4.82;2.83;;;22.90;42.30;;;;;;5019250;28;20058;-66
2023/02/08 11:54:04;;;;;;;5.32;3.25;;;22.90;42.40;;;;;;5021328;28;20034;-67
2023/02/08 11:56:32;;;;;;;4.97;2.80;;;22.90;42.40;;;;;;5024632;28;20025;-67
2023/02/08 11:59:23;;;;;;;4.40;2.90;;;22.90;42.50;;;;;;5027994;28;20525;-66
2023/02/08 12:01:49;;;;;;;3.90;2.60;;;22.80;42.50;;;;;;5028403;28;20038;-66
2023/02/08 12:04:16;;;;;;;4.22;3.00;;;22.90;42.50;;;;;;5020893;28;20040;-66
2023/02/08 12:07:00;;;;;;;5.57;2.90;;;22.80;42.50;;;;;;5024446;28;20117;-67
2023/02/08 12:09:37;;;;;;;4.63;3.03;;;22.80;42.60;;;;;;5022721;28;20468;-67
2023/02/08 12:12:06;;;;;;;5.15;3.30;;;22.80;42.60;;;;;;5019334;28;20091;-67
2023/02/08 12:15:02;;;;;;;4.47;2.95;;;22.80;42.70;;;;;;5019348;28;20183;-67
2023/02/08 12:17:51;;;;;;;5.05;3.45;;;22.80;42.70;;;;;;5019259;28;20469;-67
2023/02/08 12:20:40;;;;;;;4.78;3.28;;;22.70;42.60;;;;;;5021116;28;20021;-67
2023/02/08 12:23:24;;;;;;;4.43;2.90;;;22.70;42.60;;;;;;5018444;28;20025;-67
2023/02/08 12:26:08;;;;;;;6.32;3.00;;;22.70;42.80;;;;;;5020640;28;20480;-67
2023/02/08 12:28:51;;;;;;;4.78;3.10;;;22.70;42.70;;;;;;5020300;28;20946;-67
2023/02/08 12:31:29;;;;;;;5.85;3.33;;;22.70;42.80;;;;;;5020461;28;20117;-68
2023/02/08 12:34:18;;;;;;;4.43;2.78;;;22.70;42.80;;;;;;5018804;28;20036;-67
2023/02/08 12:40:49;;;;;;;4.35;2.85;;;22.70;43.00;;;;;;5019338;28;20067;-68
2023/02/08 12:43:51;;;;;;;5.13;2.53;;;22.60;43.00;;;;;;5033682;28;20037;-68
2023/02/08 12:46:19;;;;;;;4.95;2.95;;;22.60;43.00;;;;;;5021047;28;20163;-67
2023/02/08 12:49:12;;;;;;;4.60;3.03;;;22.60;43.00;;;;;;5021426;28;20538;-67
2023/02/08 12:51:43;;;;;;;4.95;3.17;;;22.60;43.10;;;;;;5018954;28;20540;-67
2023/02/08 12:54:38;;;;;;;4.38;2.88;;;22.60;43.10;;;;;;5019088;28;20335;-67
2023/02/08 12:57:05;;;;;;;4.35;2.83;;;22.60;43.70;;;;;;5017326;28;20038;-67
2023/02/08 12:59:39;;;;;;;5.85;3.38;;;22.60;43.10;;;;;;5018988;28;20485;-67
2023/02/08 13:02:18;;;;;;;5.45;3.42;;;22.60;43.20;;;;;;5021333;28;20068;-67
2023/02/08 13:04:48;;;;;;;5.97;3.58;;;22.60;43.20;;;;;;5019234;28;20522;-67
2023/02/08 13:07:28;;;;;;;5.57;3.47;;;22.50;43.30;;;;;;5020417;28;20079;-67
2023/02/08 13:10:25;;;;;;;5.72;3.50;;;22.50;43.40;;;;;;5018597;28;20136;-67
2023/02/08 13:12:56;;;;;;;6.22;2.97;;;22.50;43.50;;;;;;5019473;28;20382;-67